Time;durP1;ratioP1;P1;durP2;ratioP2;P2;SDS_P1;SDS_P2;PMS_P1;PMS_P2;Temp;Humidity;BMP_temperature;BMP_pressure;BME280_temperature;BME280_humidity;BME280_pressure;Samples;Min_cycle;Max_cycle;Signal;HPM_P1;HPM_P2
2023/10/08 00:03:11;;;;;;;1.00;0.70;;;14.50;93.00;;;;;;5056102;28;20123;-86
2023/10/08 00:05:37;;;;;;;0.70;0.45;;;14.50;93.10;;;;;;5039343;28;20126;-84
2023/10/08 00:08:04;;;;;;;1.45;0.45;;;14.50;93.20;;;;;;5039381;28;20072;-85
2023/10/08 00:10:41;;;;;;;1.83;0.52;;;14.50;93.30;;;;;;5056287;28;20052;-82
2023/10/08 00:13:09;;;;;;;1.58;0.40;;;14.50;93.20;;;;;;5056145;28;20043;-83
2023/10/08 00:15:36;;;;;;;1.50;0.40;;;14.50;93.10;;;;;;5035488;28;20384;-82
2023/10/08 00:18:11;;;;;;;3.22;0.80;;;14.50;93.10;;;;;;5003032;28;20037;-82
2023/10/08 00:20:47;;;;;;;1.35;0.80;;;14.50;93.10;;;;;;5020222;28;20392;-85
2023/10/08 00:23:15;;;;;;;1.52;0.50;;;14.50;93.20;;;;;;5037569;28;20523;-84
2023/10/08 00:25:41;;;;;;;2.50;0.50;;;14.50;93.30;;;;;;4987904;28;20477;-86
2023/10/08 00:28:13;;;;;;;1.38;0.52;;;14.50;93.30;;;;;;5003030;28;20127;-86
2023/10/08 00:30:41;;;;;;;1.02;0.57;;;14.30;93.30;;;;;;5030025;28;20044;-80
2023/10/08 00:33:08;;;;;;;4.05;0.85;;;14.30;93.30;;;;;;5023167;28;20040;-81
2023/10/08 00:38:54;;;;;;;1.45;0.63;;;14.30;93.40;;;;;;5019188;28;20044;-82
2023/10/08 00:41:21;;;;;;;3.30;0.75;;;14.20;93.20;;;;;;5039223;28;20044;-86
2023/10/08 00:43:48;;;;;;;2.67;1.00;;;14.20;93.20;;;;;;5039020;28;20139;-85
2023/10/08 00:47:00;;;;;;;1.95;0.82;;;14.10;93.20;;;;;;5037213;28;20037;-83
2023/10/08 00:57:26;;;;;;;1.98;0.52;;;14.10;93.30;;;;;;5041445;28;20041;-82
2023/10/08 00:59:53;;;;;;;4.15;0.77;;;14.10;93.30;;;;;;5039027;28;20127;-85
2023/10/08 01:02:27;;;;;;;3.38;0.80;;;14.20;93.30;;;;;;5025298;28;20033;-82
2023/10/08 01:04:54;;;;;;;1.67;0.70;;;14.10;93.20;;;;;;5007741;28;20175;-81
2023/10/08 01:07:21;;;;;;;3.33;0.77;;;14.00;93.30;;;;;;5001666;28;20041;-82
2023/10/08 01:09:51;;;;;;;1.65;0.70;;;14.10;93.30;;;;;;5017034;28;20394;-82
2023/10/08 01:12:33;;;;;;;2.92;0.70;;;14.10;93.30;;;;;;4999280;28;20038;-79
2023/10/08 01:18:14;;;;;;;7.03;0.70;;;14.10;93.30;;;;;;5016314;28;20470;-86
2023/10/08 01:20:51;;;;;;;3.88;0.52;;;14.10;93.30;;;;;;5001236;28;20033;-86
2023/10/08 01:23:20;;;;;;;0.63;0.40;;;14.00;93.20;;;;;;5002458;28;20033;-80
2023/10/08 01:26:01;;;;;;;2.63;0.60;;;14.10;93.20;;;;;;5003150;28;20041;-84
2023/10/08 01:28:29;;;;;;;2.00;0.93;;;14.00;93.30;;;;;;4999241;28;20044;-88
2023/10/08 01:30:57;;;;;;;5.90;0.98;;;14.00;93.20;;;;;;5014260;28;20040;-84
2023/10/08 01:33:27;;;;;;;4.13;0.68;;;14.10;93.20;;;;;;5042587;28;20048;-83
2023/10/08 01:35:54;;;;;;;2.38;0.55;;;14.00;93.30;;;;;;5059303;28;20047;-83
2023/10/08 01:38:26;;;;;;;2.53;0.60;;;14.00;93.20;;;;;;5042414;28;20124;-82
2023/10/08 01:40:51;;;;;;;2.60;0.63;;;14.00;93.30;;;;;;5027048;28;20049;-82
2023/10/08 01:43:18;;;;;;;1.67;0.50;;;14.00;93.20;;;;;;5042087;28;20516;-85
2023/10/08 01:45:48;;;;;;;4.18;0.50;;;14.00;93.20;;;;;;5042298;28;20040;-85
2023/10/08 01:48:27;;;;;;;3.42;0.50;;;14.00;93.30;;;;;;5024814;28;20492;-85
2023/10/08 01:51:01;;;;;;;2.90;0.57;;;14.00;93.20;;;;;;5058766;28;20040;-86
2023/10/08 01:53:28;;;;;;;;;;;14.00;93.20;;;;;;5042507;28;20495;-84
2023/10/08 01:55:55;;;;;;;2.65;0.52;;;14.00;93.20;;;;;;5058840;28;19971;-83
2023/10/08 01:58:22;;;;;;;2.33;0.50;;;14.00;93.30;;;;;;5025868;28;20124;-85
2023/10/08 02:00:48;;;;;;;2.88;0.75;;;14.00;93.30;;;;;;5041829;28;20045;-83
2023/10/08 02:03:17;;;;;;;2.47;0.43;;;14.00;93.30;;;;;;5042040;28;20037;-85
2023/10/08 02:05:46;;;;;;;1.75;0.60;;;14.00;93.30;;;;;;5040172;28;20396;-80
2023/10/08 02:08:14;;;;;;;3.28;0.70;;;14.00;93.30;;;;;;5041741;28;20048;-81
2023/10/08 02:10:42;;;;;;;2.28;0.60;;;13.90;93.30;;;;;;5041819;28;20037;-85
2023/10/08 02:13:09;;;;;;;3.78;0.65;;;14.00;93.30;;;;;;5043179;28;20075;-86
2023/10/08 02:15:36;;;;;;;1.65;0.50;;;14.00;93.40;;;;;;5043094;28;20090;-82
2023/10/08 02:18:03;;;;;;;1.35;0.60;;;14.00;93.40;;;;;;5026661;28;20583;-84
2023/10/08 02:20:30;;;;;;;3.60;0.98;;;14.00;93.40;;;;;;5054765;28;20397;-83
2023/10/08 02:22:56;;;;;;;2.75;0.60;;;14.00;93.50;;;;;;5038917;28;20084;-83
2023/10/08 02:25:22;;;;;;;2.17;0.57;;;14.00;93.50;;;;;;5006145;28;20523;-87
2023/10/08 02:27:49;;;;;;;1.85;0.98;;;13.90;93.50;;;;;;5006596;28;20044;-85
2023/10/08 02:30:14;;;;;;;5.45;0.77;;;13.90;93.50;;;;;;4989720;28;20084;-85
2023/10/08 02:32:43;;;;;;;4.28;0.80;;;13.90;93.40;;;;;;5033014;28;20445;-82
2023/10/08 02:35:11;;;;;;;4.20;0.93;;;13.90;93.40;;;;;;5058263;28;20040;-81
2023/10/08 02:37:39;;;;;;;3.58;0.60;;;14.00;93.40;;;;;;5025236;28;20058;-83
2023/10/08 02:40:30;;;;;;;1.55;0.60;;;13.90;93.40;;;;;;5042092;28;20040;-83
2023/10/08 02:42:58;;;;;;;3.08;0.52;;;13.90;93.50;;;;;;5056351;28;20049;-86
2023/10/08 02:45:52;;;;;;;;;;;;;;;;;;;;;
2023/10/08 02:53:02;;;;;;;1.98;0.70;;;14.00;93.60;;;;;;4975106;28;20055;-82
2023/10/08 02:55:34;;;;;;;6.78;1.25;;;13.90;93.50;;;;;;5001503;28;20049;-86
2023/10/08 02:58:03;;;;;;;2.05;0.63;;;13.90;93.50;;;;;;5001949;28;20091;-82
2023/10/08 03:00:29;;;;;;;5.63;1.02;;;13.90;93.40;;;;;;5000478;28;20133;-82
2023/10/08 03:03:01;;;;;;;4.53;0.80;;;13.90;93.50;;;;;;5015230;28;20095;-84
2023/10/08 03:05:31;;;;;;;4.30;1.10;;;13.90;93.50;;;;;;4984404;28;20037;-85
2023/10/08 03:07:57;;;;;;;4.05;1.55;;;13.90;93.50;;;;;;5016449;28;20139;-81
2023/10/08 03:10:32;;;;;;;4.78;1.02;;;14.00;93.60;;;;;;5016853;28;20069;-87
2023/10/08 03:13:04;;;;;;;;;;;14.00;93.60;;;;;;5003012;28;20108;-86
2023/10/08 03:15:30;;;;;;;4.43;0.77;;;13.90;93.50;;;;;;5016477;28;19917;-80
2023/10/08 03:18:09;;;;;;;2.53;0.95;;;14.00;93.60;;;;;;5000177;28;20107;-81
2023/10/08 03:20:38;;;;;;;4.57;1.02;;;14.00;93.60;;;;;;5029997;28;20053;-84
2023/10/08 03:23:11;;;;;;;4.05;0.85;;;14.00;93.50;;;;;;5003242;28;20127;-85
2023/10/08 03:25:41;;;;;;;2.30;1.00;;;14.00;93.50;;;;;;5001322;28;20043;-81
2023/10/08 03:28:08;;;;;;;1.92;0.70;;;14.00;93.50;;;;;;5001513;28;20056;-80
2023/10/08 03:30:47;;;;;;;3.15;1.00;;;14.00;93.40;;;;;;5001036;28;20520;-84
2023/10/08 03:33:21;;;;;;;3.17;0.90;;;14.00;93.40;;;;;;5015210;28;20147;-82
2023/10/08 03:35:49;;;;;;;;;;;14.00;93.40;;;;;;5021863;28;20041;-82
2023/10/08 03:38:21;;;;;;;2.03;0.90;;;14.00;93.40;;;;;;5005348;28;19940;-81
2023/10/08 03:40:49;;;;;;;3.58;1.25;;;14.00;93.50;;;;;;5021391;28;20051;-83
2023/10/08 03:43:23;;;;;;;3.00;0.95;;;14.00;93.50;;;;;;5004189;28;20063;-85
2023/10/08 03:45:59;;;;;;;3.42;1.25;;;13.90;93.40;;;;;;5036719;28;20052;-82
2023/10/08 03:48:25;;;;;;;5.03;1.08;;;14.00;93.30;;;;;;5015966;28;20127;-80
2023/10/08 03:51:06;;;;;;;3.40;1.40;;;14.00;93.30;;;;;;5000892;28;20048;-83
2023/10/08 03:53:58;;;;;;;3.28;1.15;;;14.00;93.30;;;;;;5000502;28;20040;-85
2023/10/08 04:11:49;;;;;;;;;;;;;;;;;;;;;
2023/10/08 04:19:47;;;;;;;5.70;1.17;;;14.00;93.30;;;;;;5009905;28;20049;-82
2023/10/08 04:22:16;;;;;;;2.83;0.88;;;14.00;93.30;;;;;;4996632;28;20410;-86
2023/10/08 04:24:43;;;;;;;4.07;1.13;;;14.00;93.30;;;;;;4981040;28;20045;-83
2023/10/08 04:27:09;;;;;;;7.43;1.20;;;14.00;93.30;;;;;;4980561;28;20129;-82
2023/10/08 04:29:37;;;;;;;3.80;1.40;;;14.00;93.30;;;;;;4980230;28;20042;-86
2023/10/08 04:32:07;;;;;;;5.03;1.58;;;13.90;93.30;;;;;;4980598;28;20049;-82
2023/10/08 04:34:34;;;;;;;3.67;1.15;;;14.00;93.30;;;;;;4978538;28;20038;-83
2023/10/08 04:37:11;;;;;;;5.28;1.38;;;14.00;93.30;;;;;;5012424;28;20045;-84
2023/10/08 04:39:39;;;;;;;4.85;1.27;;;14.00;93.30;;;;;;4981749;28;20041;-85
2023/10/08 04:42:12;;;;;;;4.05;1.23;;;14.00;93.30;;;;;;4996382;28;20503;-81
2023/10/08 04:44:39;;;;;;;2.53;0.90;;;14.00;93.30;;;;;;4981167;28;20136;-80
2023/10/08 04:47:06;;;;;;;3.30;1.10;;;14.00;93.30;;;;;;4980356;28;20049;-82
2023/10/08 04:49:45;;;;;;;5.18;1.58;;;14.00;93.30;;;;;;4996712;28;20046;-83
2023/10/08 04:52:34;;;;;;;5.10;1.38;;;14.00;93.30;;;;;;4986249;28;20045;-85
2023/10/08 04:55:48;;;;;;;5.88;1.42;;;14.00;93.30;;;;;;4974431;28;20054;-83
2023/10/08 04:58:21;;;;;;;9.18;1.73;;;14.00;93.20;;;;;;4959598;28;20435;-81
2023/10/08 05:00:59;;;;;;;7.47;1.88;;;13.90;93.20;;;;;;4960579;28;20108;-79
2023/10/08 05:03:32;;;;;;;10.07;1.65;;;13.90;93.20;;;;;;4961253;28;20046;-82
2023/10/08 05:08:57;;;;;;;7.63;1.67;;;13.90;93.30;;;;;;4967845;28;20561;-85
2023/10/08 05:11:45;;;;;;;4.60;1.27;;;14.00;93.40;;;;;;4955866;28;20047;-82
2023/10/08 05:17:45;;;;;;;8.60;1.88;;;13.90;93.40;;;;;;4956054;28;20074;-82
2023/10/08 05:25:40;;;;;;;10.65;2.17;;;14.00;93.40;;;;;;4934470;28;20100;-85
2023/10/08 05:30:54;;;;;;;7.68;2.13;;;14.00;93.40;;;;;;4995488;28;20046;-84
2023/10/08 05:33:24;;;;;;;6.47;1.45;;;13.90;93.40;;;;;;4995888;28;20073;-83
2023/10/08 05:36:02;;;;;;;8.05;1.73;;;13.90;93.40;;;;;;4972040;28;20042;-83
2023/10/08 05:57:14;;;;;;;6.93;1.95;;;13.80;93.10;;;;;;4981514;28;20137;-84
2023/10/08 06:13:09;;;;;;;5.10;1.65;;;13.80;92.90;;;;;;4995658;28;20061;-81
2023/10/08 06:18:25;;;;;;;7.88;2.10;;;13.80;92.90;;;;;;4998180;28;20050;-86
2023/10/08 06:20:56;;;;;;;10.15;2.33;;;13.80;93.00;;;;;;4999075;28;20050;-85
2023/10/08 06:23:23;;;;;;;8.98;1.83;;;13.80;93.00;;;;;;4998965;28;20120;-85
2023/10/08 06:26:05;;;;;;;7.53;2.08;;;13.80;93.00;;;;;;4982807;28;20053;-83
2023/10/08 06:28:34;;;;;;;7.55;2.08;;;13.80;93.00;;;;;;4984121;28;20046;-85
2023/10/08 06:31:11;;;;;;;6.57;2.28;;;13.80;93.00;;;;;;4966801;28;20128;-85
2023/10/08 06:33:37;;;;;;;5.30;2.03;;;13.70;93.00;;;;;;4998323;28;20041;-86
2023/10/08 06:36:15;;;;;;;9.35;2.33;;;13.80;92.90;;;;;;4996690;28;20033;-79
2023/10/08 06:38:43;;;;;;;7.45;2.33;;;13.70;92.90;;;;;;4983414;28;20517;-84
2023/10/08 06:43:37;;;;;;;11.20;2.03;;;13.70;92.80;;;;;;4998226;28;20054;-84
2023/10/08 06:46:07;;;;;;;7.95;2.03;;;13.80;92.70;;;;;;4998496;28;20390;-83
2023/10/08 06:48:34;;;;;;;8.90;1.90;;;13.80;92.80;;;;;;4998253;28;20104;-82
2023/10/08 06:51:18;;;;;;;7.82;2.92;;;13.90;92.90;;;;;;4973450;28;20035;-83
2023/10/08 06:53:46;;;;;;;9.35;2.42;;;13.80;92.80;;;;;;4975470;28;20550;-82
2023/10/08 06:56:18;;;;;;;10.85;2.65;;;13.80;92.70;;;;;;4991701;28;20486;-80
2023/10/08 06:58:49;;;;;;;10.60;2.75;;;13.80;92.70;;;;;;4991697;28;20109;-82
2023/10/08 07:01:21;;;;;;;8.75;2.10;;;13.80;92.70;;;;;;4975478;28;20129;-84
2023/10/08 07:03:49;;;;;;;11.85;2.85;;;13.80;92.70;;;;;;4992666;28;20050;-82
2023/10/08 07:06:25;;;;;;;11.57;2.22;;;13.90;92.60;;;;;;4961945;28;20566;-79
2023/10/08 07:08:55;;;;;;;7.47;1.80;;;13.90;92.50;;;;;;5008982;28;20041;-79
2023/10/08 07:11:22;;;;;;;7.80;2.33;;;14.00;92.50;;;;;;4982009;28;20505;-84
2023/10/08 07:13:48;;;;;;;9.18;2.47;;;13.90;92.40;;;;;;4998227;28;20124;-85
2023/10/08 07:16:17;;;;;;;11.57;2.50;;;13.90;92.20;;;;;;4998150;28;20501;-84
2023/10/08 07:18:54;;;;;;;12.25;2.42;;;14.00;92.20;;;;;;4986520;28;20060;-82
2023/10/08 07:21:28;;;;;;;8.50;1.95;;;14.00;92.30;;;;;;4997804;28;20050;-84
2023/10/08 07:23:59;;;;;;;8.07;2.83;;;14.00;92.30;;;;;;4997648;28;20053;-82
2023/10/08 07:26:40;;;;;;;6.30;2.38;;;14.10;92.20;;;;;;5013218;28;20046;-85
2023/10/08 07:29:10;;;;;;;12.02;2.95;;;14.10;92.10;;;;;;4981182;28;20056;-85
2023/10/08 07:31:41;;;;;;;4.18;1.75;;;14.20;92.00;;;;;;4997780;28;20057;-85
2023/10/08 07:34:17;;;;;;;7.63;1.77;;;14.10;91.80;;;;;;4997678;28;20427;-82
2023/10/08 07:36:44;;;;;;;6.75;1.77;;;14.20;91.90;;;;;;4989582;28;20041;-86
2023/10/08 07:39:22;;;;;;;4.13;1.48;;;14.10;91.50;;;;;;4997594;28;20464;-86
2023/10/08 07:41:49;;;;;;;10.20;1.70;;;14.10;91.10;;;;;;4966813;28;20045;-85
2023/10/08 07:44:15;;;;;;;10.68;1.83;;;14.10;91.30;;;;;;4997238;28;20133;-82
2023/10/08 07:46:41;;;;;;;10.50;2.33;;;14.10;91.00;;;;;;4997085;28;20124;-87
2023/10/08 07:49:06;;;;;;;6.82;1.52;;;14.10;90.60;;;;;;4981151;28;20041;-82
2023/10/08 07:51:33;;;;;;;6.55;1.80;;;14.10;90.60;;;;;;4964751;28;20402;-82
2023/10/08 07:53:59;;;;;;;8.15;2.42;;;14.20;90.40;;;;;;4980855;28;20501;-82
2023/10/08 07:56:25;;;;;;;6.38;2.17;;;14.20;90.70;;;;;;4977480;28;20576;-82
2023/10/08 07:58:57;;;;;;;7.05;2.03;;;14.30;90.40;;;;;;4961473;28;20065;-84
2023/10/08 08:01:27;;;;;;;9.60;2.00;;;14.40;90.30;;;;;;4961580;28;20611;-84
2023/10/08 08:03:52;;;;;;;7.10;2.10;;;14.40;89.70;;;;;;4961829;28;20042;-83
2023/10/08 08:06:18;;;;;;;9.55;1.75;;;14.50;90.00;;;;;;4979373;28;20065;-79
2023/10/08 08:08:44;;;;;;;5.95;1.60;;;14.50;89.90;;;;;;4989777;28;20102;-77
2023/10/08 08:11:16;;;;;;;5.50;1.60;;;14.50;89.70;;;;;;4976029;28;20042;-87
2023/10/08 08:13:43;;;;;;;8.10;2.70;;;14.60;89.30;;;;;;4966566;28;20038;-86
2023/10/08 08:16:20;;;;;;;5.55;1.65;;;14.60;89.10;;;;;;4981016;28;20445;-87
2023/10/08 08:18:59;;;;;;;18.02;2.03;;;14.60;89.00;;;;;;5002538;28;20056;-83
2023/10/08 08:21:25;;;;;;;9.85;2.45;;;14.70;88.90;;;;;;4996625;28;20045;-82
2023/10/08 08:23:52;;;;;;;8.05;2.35;;;14.70;88.60;;;;;;5012750;28;20129;-82
2023/10/08 08:26:29;;;;;;;9.63;2.33;;;14.80;88.40;;;;;;4997020;28;20489;-86
2023/10/08 08:29:00;;;;;;;10.32;2.13;;;14.80;88.30;;;;;;5011354;28;20046;-80
2023/10/08 08:31:35;;;;;;;8.27;1.70;;;14.90;88.00;;;;;;5012732;28;20128;-83
2023/10/08 08:34:13;;;;;;;7.30;1.98;;;15.00;88.10;;;;;;4999218;28;20077;-83
2023/10/08 08:36:46;;;;;;;7.03;1.58;;;15.00;88.10;;;;;;5009475;28;20124;-82
2023/10/08 08:39:23;;;;;;;9.25;2.03;;;15.00;87.80;;;;;;4993922;28;20446;-80
2023/10/08 08:41:53;;;;;;;5.97;1.58;;;15.00;87.60;;;;;;5013324;28;20371;-82
2023/10/08 08:44:20;;;;;;;10.40;1.73;;;15.00;87.40;;;;;;5024335;28;20065;-80
2023/10/08 08:46:47;;;;;;;7.28;2.22;;;15.00;87.60;;;;;;5013967;28;20053;-81
2023/10/08 08:49:14;;;;;;;7.35;1.95;;;15.00;87.50;;;;;;5026200;28;20103;-81
2023/10/08 08:51:41;;;;;;;5.00;1.70;;;15.00;87.10;;;;;;4998752;28;20144;-87
2023/10/08 08:54:06;;;;;;;7.78;1.55;;;15.00;86.60;;;;;;4994989;28;20042;-85
2023/10/08 08:56:38;;;;;;;9.75;2.20;;;15.10;86.40;;;;;;4980521;28;20041;-84
2023/10/08 08:59:13;;;;;;;8.55;1.30;;;15.20;86.40;;;;;;5012750;28;20045;-82
2023/10/08 09:01:40;;;;;;;6.35;1.98;;;15.30;86.00;;;;;;4997214;28;20080;-84
2023/10/08 09:04:06;;;;;;;8.50;2.25;;;15.30;85.90;;;;;;4996383;28;20241;-81
2023/10/08 09:06:39;;;;;;;7.15;1.70;;;15.40;86.00;;;;;;5016604;28;20188;-86
2023/10/08 09:09:24;;;;;;;6.47;1.93;;;15.50;85.60;;;;;;5037787;28;20085;-83
2023/10/08 09:11:51;;;;;;;8.05;1.80;;;15.60;85.50;;;;;;5022838;28;20061;-82
2023/10/08 09:14:25;;;;;;;6.75;1.33;;;15.80;84.20;;;;;;5021931;28;20041;-86
2023/10/08 09:16:54;;;;;;;12.00;1.85;;;15.90;84.30;;;;;;5022035;28;20093;-81
2023/10/08 09:19:23;;;;;;;5.20;1.75;;;15.90;81.80;;;;;;5041367;28;20033;-81
2023/10/08 09:22:09;;;;;;;5.68;1.50;;;16.00;83.30;;;;;;5058011;28;20029;-81
2023/10/08 09:24:39;;;;;;;7.43;1.52;;;16.00;82.30;;;;;;5007458;28;20081;-86
2023/10/08 09:27:09;;;;;;;8.00;1.73;;;16.00;81.80;;;;;;5002656;28;20181;-85
2023/10/08 09:29:40;;;;;;;7.43;1.98;;;16.10;82.20;;;;;;5021936;28;20022;-85
2023/10/08 09:32:09;;;;;;;6.18;1.75;;;16.00;80.60;;;;;;5008714;28;20098;-80
2023/10/08 09:34:34;;;;;;;7.22;1.88;;;16.00;80.10;;;;;;5028249;28;20050;-81
2023/10/08 09:37:01;;;;;;;12.00;2.40;;;16.10;81.30;;;;;;4992980;28;20060;-80
2023/10/08 09:39:29;;;;;;;6.32;1.50;;;16.10;78.90;;;;;;5018041;28;20587;-84
2023/10/08 09:41:58;;;;;;;9.85;1.50;;;16.20;80.50;;;;;;4994384;28;20065;-82
2023/10/08 09:44:25;;;;;;;6.88;1.58;;;16.30;79.90;;;;;;4995118;28;20033;-82
2023/10/08 09:46:57;;;;;;;5.38;1.75;;;16.30;79.50;;;;;;5027185;28;20046;-85
2023/10/08 09:49:31;;;;;;;6.82;1.73;;;16.40;79.90;;;;;;5027977;28;20048;-84
2023/10/08 09:52:01;;;;;;;7.63;1.40;;;16.30;78.40;;;;;;4995989;28;20053;-82
2023/10/08 09:54:39;;;;;;;8.35;1.30;;;16.40;79.60;;;;;;5031904;28;20045;-80
2023/10/08 09:57:06;;;;;;;5.93;1.73;;;16.40;79.40;;;;;;5024207;28;20482;-82
2023/10/08 09:59:37;;;;;;;6.13;1.63;;;16.40;78.10;;;;;;4986745;28;20040;-86
2023/10/08 10:02:04;;;;;;;8.52;1.80;;;16.50;78.90;;;;;;5035776;28;20048;-84
2023/10/08 10:04:35;;;;;;;4.85;1.60;;;16.60;78.80;;;;;;5002873;28;20127;-83
2023/10/08 10:07:12;;;;;;;7.78;1.50;;;16.70;78.20;;;;;;5002785;28;20049;-87
2023/10/08 10:09:39;;;;;;;9.95;2.20;;;16.80;75.90;;;;;;5019144;28;20049;-85
2023/10/08 10:12:09;;;;;;;6.00;1.80;;;16.90;75.90;;;;;;5017773;28;20096;-84
2023/10/08 10:14:46;;;;;;;8.98;1.98;;;16.90;76.80;;;;;;4986565;28;20034;-84
2023/10/08 10:17:20;;;;;;;6.45;2.10;;;17.00;77.00;;;;;;5019300;28;20072;-81
2023/10/08 10:20:03;;;;;;;4.63;1.50;;;17.10;75.40;;;;;;5002386;28;20128;-84
2023/10/08 10:22:31;;;;;;;7.88;1.85;;;17.20;74.90;;;;;;5019378;28;20112;-82
2023/10/08 10:24:58;;;;;;;7.70;1.35;;;17.30;74.30;;;;;;5021543;28;20397;-83
2023/10/08 10:27:24;;;;;;;6.20;2.13;;;17.40;75.20;;;;;;4987891;28;20080;-82
2023/10/08 10:29:49;;;;;;;6.75;1.77;;;17.50;75.50;;;;;;4984718;28;20045;-83
2023/10/08 10:32:16;;;;;;;8.32;1.33;;;17.70;74.60;;;;;;4985887;28;20037;-81
2023/10/08 10:34:43;;;;;;;6.68;1.40;;;17.70;72.80;;;;;;4986571;28;20083;-81
2023/10/08 10:37:19;;;;;;;7.78;1.92;;;17.70;73.60;;;;;;5002205;28;20041;-83
2023/10/08 10:40:00;;;;;;;7.03;1.70;;;17.80;73.10;;;;;;4990755;28;20169;-82
2023/10/08 10:42:28;;;;;;;5.55;1.52;;;18.00;71.40;;;;;;4982844;28;20080;-86
2023/10/08 10:45:09;;;;;;;5.68;1.55;;;18.00;71.20;;;;;;4984181;28;20041;-82
2023/10/08 10:47:43;;;;;;;8.45;1.67;;;18.20;71.20;;;;;;4967801;28;20050;-82
2023/10/08 10:50:26;;;;;;;7.75;1.95;;;18.00;70.80;;;;;;4998749;28;20045;-84
2023/10/08 10:52:52;;;;;;;5.43;1.40;;;18.00;69.00;;;;;;4984352;28;20048;-83
2023/10/08 10:55:21;;;;;;;7.22;1.33;;;17.90;70.70;;;;;;4982210;28;20034;-90
2023/10/08 10:57:55;;;;;;;7.20;1.33;;;17.80;70.30;;;;;;5013870;28;20037;-85
2023/10/08 11:00:57;;;;;;;7.57;1.75;;;17.80;71.20;;;;;;5017561;28;20482;-80
2023/10/08 11:03:17;;;;;;;5.18;1.50;;;17.50;69.60;;;;;;5011822;28;20077;-84
2023/10/08 11:05:51;;;;;;;4.63;1.80;;;17.50;70.90;;;;;;5001779;28;20075;-86
2023/10/08 11:08:18;;;;;;;4.93;1.50;;;17.50;71.80;;;;;;5017860;28;20049;-84
2023/10/08 11:10:51;;;;;;;8.07;1.50;;;17.50;71.60;;;;;;5001466;28;20096;-84
2023/10/08 11:13:28;;;;;;;6.43;1.42;;;17.60;71.30;;;;;;5016144;28;20067;-80
2023/10/08 11:15:56;;;;;;;8.45;1.40;;;17.70;71.70;;;;;;5001206;28;20124;-84
2023/10/08 11:18:23;;;;;;;7.38;1.67;;;17.70;69.90;;;;;;5001067;28;20490;-81
2023/10/08 11:21:02;;;;;;;9.32;1.80;;;17.90;71.10;;;;;;5033671;28;20049;-80
2023/10/08 11:23:42;;;;;;;10.60;1.60;;;17.90;70.60;;;;;;5001727;28;20042;-87
2023/10/08 11:26:08;;;;;;;8.02;1.77;;;18.10;67.10;;;;;;5018151;28;20041;-86
2023/10/08 11:28:42;;;;;;;6.70;1.85;;;18.00;68.40;;;;;;4986677;28;20038;-81
2023/10/08 11:31:13;;;;;;;6.45;1.52;;;18.10;68.00;;;;;;5018073;28;20576;-83
2023/10/08 11:33:41;;;;;;;8.60;1.58;;;18.20;68.60;;;;;;4997388;28;20052;-81
2023/10/08 11:36:25;;;;;;;10.02;1.73;;;18.00;67.50;;;;;;5009226;28;20079;-84
2023/10/08 11:38:53;;;;;;;5.03;1.40;;;18.20;67.40;;;;;;5004108;28;20075;-82
2023/10/08 11:41:22;;;;;;;8.73;1.77;;;18.50;66.70;;;;;;5002012;28;20049;-84
2023/10/08 11:43:57;;;;;;;8.65;2.30;;;18.70;67.10;;;;;;5002356;28;20045;-83
2023/10/08 11:46:32;;;;;;;5.72;1.48;;;18.90;66.60;;;;;;5017460;28;20558;-81
2023/10/08 11:49:04;;;;;;;6.85;1.63;;;18.90;65.70;;;;;;5017671;28;20053;-82
2023/10/08 11:51:36;;;;;;;7.50;1.52;;;18.90;66.20;;;;;;5002220;28;20041;-84
2023/10/08 11:54:05;;;;;;;7.20;1.63;;;18.60;63.10;;;;;;5017128;28;20175;-85
2023/10/08 11:56:33;;;;;;;6.32;1.63;;;18.50;65.40;;;;;;5016948;28;20037;-81
2023/10/08 11:59:08;;;;;;;8.65;1.95;;;18.50;66.30;;;;;;5000445;28;20478;-85
2023/10/08 12:01:46;;;;;;;9.35;2.25;;;18.40;65.60;;;;;;5000112;28;20041;-84
2023/10/08 12:04:16;;;;;;;10.48;1.80;;;18.50;66.50;;;;;;5000855;28;20048;-85
2023/10/08 12:06:55;;;;;;;6.75;1.50;;;18.40;65.90;;;;;;5000572;28;20045;-83
2023/10/08 12:09:27;;;;;;;8.10;1.80;;;18.40;65.90;;;;;;4987738;28;20041;-87
2023/10/08 12:12:03;;;;;;;5.32;1.52;;;18.50;67.30;;;;;;5001319;28;20037;-81
2023/10/08 12:14:40;;;;;;;9.18;2.03;;;18.50;66.20;;;;;;5001763;28;20116;-83
2023/10/08 12:17:11;;;;;;;6.20;1.60;;;18.70;66.80;;;;;;4985203;28;20048;-85
2023/10/08 12:19:47;;;;;;;7.30;1.60;;;18.80;66.30;;;;;;5001927;28;20054;-83
2023/10/08 12:22:19;;;;;;;5.45;1.52;;;18.70;64.70;;;;;;4985116;28;20486;-84
2023/10/08 12:24:52;;;;;;;8.65;1.60;;;18.80;64.90;;;;;;5000382;28;20045;-86
2023/10/08 12:27:18;;;;;;;6.32;1.40;;;19.10;65.40;;;;;;4984805;28;20053;-84
2023/10/08 12:29:44;;;;;;;8.27;1.75;;;19.20;65.10;;;;;;5000124;28;20068;-83
2023/10/08 12:32:17;;;;;;;8.40;1.50;;;19.20;63.30;;;;;;4999384;28;20481;-81
2023/10/08 12:34:42;;;;;;;6.68;1.40;;;19.50;64.70;;;;;;4985394;28;20393;-82
2023/10/08 12:37:14;;;;;;;8.10;1.80;;;19.60;62.90;;;;;;4983924;28;20037;-86
2023/10/08 12:39:56;;;;;;;6.70;1.70;;;19.60;61.30;;;;;;5016530;28;20067;-84
2023/10/08 12:42:23;;;;;;;7.40;2.10;;;19.60;61.70;;;;;;4985603;28;20041;-81
2023/10/08 12:44:49;;;;;;;5.53;1.85;;;19.50;62.40;;;;;;5000059;28;20041;-86
2023/10/08 12:47:15;;;;;;;7.25;1.60;;;19.50;61.90;;;;;;5032667;28;20042;-84
2023/10/08 12:49:41;;;;;;;8.60;1.80;;;19.60;62.30;;;;;;5000277;28;20053;-88
2023/10/08 12:52:08;;;;;;;5.50;1.67;;;19.80;62.60;;;;;;4983806;28;20042;-86
2023/10/08 12:54:45;;;;;;;7.43;1.63;;;19.60;59.50;;;;;;4983936;28;20485;-88
2023/10/08 12:57:10;;;;;;;6.07;1.77;;;19.70;62.00;;;;;;4985983;28;20095;-87
2023/10/08 12:59:38;;;;;;;9.15;2.40;;;19.90;62.10;;;;;;4983258;28;20034;-86
2023/10/08 13:02:08;;;;;;;8.00;1.65;;;20.20;62.20;;;;;;4984002;28;20099;-83
2023/10/08 13:04:34;;;;;;;8.05;1.65;;;20.40;62.60;;;;;;5015556;28;20504;-84
2023/10/08 13:07:02;;;;;;;9.43;1.85;;;20.40;62.10;;;;;;4983443;28;20405;-81
2023/10/08 13:09:30;;;;;;;6.35;1.30;;;20.20;60.90;;;;;;4983042;28;20045;-85
2023/10/08 13:11:59;;;;;;;7.43;1.50;;;20.10;62.60;;;;;;4999587;28;20041;-82
2023/10/08 13:14:25;;;;;;;5.35;1.58;;;19.80;62.80;;;;;;4999166;28;20557;-85
2023/10/08 13:16:53;;;;;;;9.10;1.63;;;19.60;63.70;;;;;;5000120;28;20516;-86
2023/10/08 13:19:20;;;;;;;7.68;1.60;;;19.50;64.00;;;;;;4984168;28;20608;-81
2023/10/08 13:21:47;;;;;;;6.50;2.42;;;19.30;64.20;;;;;;4999618;28;20045;-87
2023/10/08 13:24:13;;;;;;;4.90;1.70;;;19.30;64.70;;;;;;4999859;28;20124;-81
2023/10/08 13:26:39;;;;;;;6.00;1.98;;;19.20;65.30;;;;;;4983966;28;20080;-83
2023/10/08 13:29:09;;;;;;;11.55;2.20;;;19.00;65.30;;;;;;5019482;28;20041;-84
2023/10/08 13:31:36;;;;;;;6.13;1.40;;;19.00;66.00;;;;;;5003683;28;20124;-83
2023/10/08 13:34:03;;;;;;;6.10;1.48;;;19.00;66.70;;;;;;4987408;28;20394;-82
2023/10/08 13:36:29;;;;;;;4.68;1.40;;;18.90;66.80;;;;;;5003345;28;20184;-82
2023/10/08 13:38:56;;;;;;;5.75;1.50;;;18.90;67.10;;;;;;5003023;28;20076;-84
2023/10/08 13:41:21;;;;;;;5.25;1.52;;;18.70;65.70;;;;;;4986641;28;20088;-81
2023/10/08 13:43:51;;;;;;;4.65;1.48;;;18.60;66.10;;;;;;4988851;28;20045;-85
2023/10/08 13:46:19;;;;;;;9.20;1.88;;;18.50;65.70;;;;;;4986775;28;20075;-84
2023/10/08 13:48:48;;;;;;;6.40;2.15;;;18.50;66.10;;;;;;5002849;28;20042;-81
2023/10/08 13:51:23;;;;;;;6.53;1.48;;;18.40;66.70;;;;;;5002883;28;20052;-82
2023/10/08 13:54:00;;;;;;;6.15;1.40;;;18.20;67.10;;;;;;5004350;28;20148;-84
2023/10/08 13:56:30;;;;;;;5.90;1.95;;;18.20;68.10;;;;;;4987851;28;20041;-83
2023/10/08 13:59:04;;;;;;;6.60;1.70;;;18.20;68.00;;;;;;5020002;28;20517;-80
2023/10/08 14:01:34;;;;;;;7.32;1.40;;;18.20;68.10;;;;;;4988014;28;20367;-85
2023/10/08 14:04:05;;;;;;;3.42;1.10;;;18.00;67.90;;;;;;5019730;28;20042;-85
2023/10/08 14:06:35;;;;;;;5.72;1.63;;;18.10;68.20;;;;;;5003879;28;20080;-82
2023/10/08 14:09:07;;;;;;;5.85;1.52;;;18.00;68.10;;;;;;5035565;28;20511;-83
2023/10/08 14:11:33;;;;;;;5.97;1.92;;;18.00;68.40;;;;;;5004485;28;20045;-86
2023/10/08 14:14:07;;;;;;;4.32;1.13;;;18.00;68.30;;;;;;4988104;28;20041;-83
2023/10/08 14:16:42;;;;;;;;;;;18.00;68.40;;;;;;5006284;28;20372;-80
2023/10/08 14:19:12;;;;;;;2.78;1.15;;;17.90;68.40;;;;;;5015843;28;19970;-81
2023/10/08 14:21:54;;;;;;;4.95;1.25;;;17.80;69.00;;;;;;5000574;28;20441;-82
2023/10/08 14:24:20;;;;;;;4.50;1.23;;;17.80;69.10;;;;;;5000300;28;20399;-80
2023/10/08 14:26:56;;;;;;;6.75;2.33;;;17.70;69.40;;;;;;5015713;28;20049;-81
2023/10/08 14:29:26;;;;;;;4.97;1.40;;;17.70;69.70;;;;;;5016976;28;20541;-84
2023/10/08 14:31:55;;;;;;;7.05;1.58;;;17.60;70.10;;;;;;5000666;28;20045;-84
2023/10/08 14:42:53;;;;;;;4.97;1.23;;;17.50;70.20;;;;;;4999121;28;20048;-85
2023/10/08 14:45:20;;;;;;;4.95;1.85;;;17.30;71.80;;;;;;4987451;28;20081;-85
2023/10/08 14:47:45;;;;;;;8.43;2.03;;;17.30;71.90;;;;;;4999624;28;20478;-83
2023/10/08 14:50:16;;;;;;;7.32;1.35;;;17.30;72.20;;;;;;5000466;28;20050;-84
2023/10/08 14:52:46;;;;;;;6.15;1.33;;;17.30;71.80;;;;;;4998925;28;20081;-83